sensor_id;sensor_type;location;lat;lon;timestamp;P1;durP1;ratioP1;P2;durP2;ratioP2
13969;SDS011;7057;49.984;8.404;2022-12-18T00:02:23;40.95;;;20.45;;
13969;SDS011;7057;49.984;8.404;2022-12-18T00:04:51;38.60;;;18.83;;
13969;SDS011;7057;49.984;8.404;2022-12-18T00:07:18;39.38;;;20.73;;
13969;SDS011;7057;49.984;8.404;2022-12-18T00:09:45;44.42;;;20.23;;
13969;SDS011;7057;49.984;8.404;2022-12-18T00:12:13;40.33;;;19.63;;
13969;SDS011;7057;49.984;8.404;2022-12-18T00:14:40;34.75;;;18.90;;
13969;SDS011;7057;49.984;8.404;2022-12-18T00:17:10;40.85;;;18.92;;
13969;SDS011;7057;49.984;8.404;2022-12-18T00:19:39;34.15;;;18.48;;
13969;SDS011;7057;49.984;8.404;2022-12-18T00:22:06;35.60;;;18.38;;
13969;SDS011;7057;49.984;8.404;2022-12-18T00:24:33;37.05;;;18.50;;
13969;SDS011;7057;49.984;8.404;2022-12-18T00:27:00;38.10;;;18.63;;
13969;SDS011;7057;49.984;8.404;2022-12-18T00:29:27;36.28;;;17.73;;
13969;SDS011;7057;49.984;8.404;2022-12-18T00:31:55;39.53;;;18.13;;
13969;SDS011;7057;49.984;8.404;2022-12-18T00:34:22;39.90;;;18.33;;
13969;SDS011;7057;49.984;8.404;2022-12-18T00:36:50;39.10;;;18.67;;
13969;SDS011;7057;49.984;8.404;2022-12-18T00:39:18;33.97;;;18.17;;
13969;SDS011;7057;49.984;8.404;2022-12-18T00:41:45;36.42;;;17.95;;
13969;SDS011;7057;49.984;8.404;2022-12-18T00:44:30;36.80;;;17.77;;
13969;SDS011;7057;49.984;8.404;2022-12-18T00:46:57;36.33;;;18.40;;
13969;SDS011;7057;49.984;8.404;2022-12-18T00:49:24;35.42;;;17.58;;
13969;SDS011;7057;49.984;8.404;2022-12-18T00:51:56;36.28;;;17.98;;
13969;SDS011;7057;49.984;8.404;2022-12-18T00:54:24;40.00;;;18.80;;
13969;SDS011;7057;49.984;8.404;2022-12-18T00:56:51;34.55;;;18.35;;
13969;SDS011;7057;49.984;8.404;2022-12-18T00:59:18;39.05;;;18.80;;
13969;SDS011;7057;49.984;8.404;2022-12-18T01:01:46;34.22;;;17.52;;
13969;SDS011;7057;49.984;8.404;2022-12-18T01:04:13;37.22;;;18.30;;
13969;SDS011;7057;49.984;8.404;2022-12-18T01:06:41;36.97;;;17.55;;
13969;SDS011;7057;49.984;8.404;2022-12-18T01:09:10;37.80;;;17.33;;
13969;SDS011;7057;49.984;8.404;2022-12-18T01:11:37;33.92;;;17.58;;
13969;SDS011;7057;49.984;8.404;2022-12-18T01:14:05;35.13;;;17.88;;
13969;SDS011;7057;49.984;8.404;2022-12-18T01:16:32;36.78;;;17.77;;
13969;SDS011;7057;49.984;8.404;2022-12-18T01:18:59;34.40;;;17.30;;
13969;SDS011;7057;49.984;8.404;2022-12-18T01:21:27;31.40;;;17.63;;
13969;SDS011;7057;49.984;8.404;2022-12-18T01:23:55;34.70;;;17.57;;
13969;SDS011;7057;49.984;8.404;2022-12-18T01:26:24;35.33;;;17.52;;
13969;SDS011;7057;49.984;8.404;2022-12-18T01:28:55;34.15;;;16.90;;
13969;SDS011;7057;49.984;8.404;2022-12-18T01:31:23;34.22;;;16.70;;
13969;SDS011;7057;49.984;8.404;2022-12-18T01:33:51;34.42;;;17.73;;
13969;SDS011;7057;49.984;8.404;2022-12-18T01:36:20;35.22;;;17.75;;
13969;SDS011;7057;49.984;8.404;2022-12-18T01:38:49;34.83;;;17.50;;
13969;SDS011;7057;49.984;8.404;2022-12-18T01:41:18;36.33;;;17.10;;
13969;SDS011;7057;49.984;8.404;2022-12-18T01:43:52;35.53;;;18.38;;
13969;SDS011;7057;49.984;8.404;2022-12-18T01:46:22;34.05;;;16.75;;
13969;SDS011;7057;49.984;8.404;2022-12-18T01:48:53;32.22;;;16.45;;
13969;SDS011;7057;49.984;8.404;2022-12-18T01:51:22;33.80;;;16.48;;
13969;SDS011;7057;49.984;8.404;2022-12-18T01:53:50;31.17;;;16.60;;
13969;SDS011;7057;49.984;8.404;2022-12-18T01:56:18;31.70;;;15.82;;
13969;SDS011;7057;49.984;8.404;2022-12-18T01:58:48;32.83;;;15.80;;
13969;SDS011;7057;49.984;8.404;2022-12-18T02:01:22;33.83;;;17.08;;
13969;SDS011;7057;49.984;8.404;2022-12-18T02:03:50;33.88;;;16.85;;
13969;SDS011;7057;49.984;8.404;2022-12-18T02:06:20;29.35;;;16.00;;
13969;SDS011;7057;49.984;8.404;2022-12-18T02:08:53;31.50;;;15.52;;
13969;SDS011;7057;49.984;8.404;2022-12-18T02:11:31;32.80;;;15.50;;
13969;SDS011;7057;49.984;8.404;2022-12-18T02:14:10;30.58;;;16.35;;
13969;SDS011;7057;49.984;8.404;2022-12-18T02:16:44;30.80;;;16.27;;
13969;SDS011;7057;49.984;8.404;2022-12-18T02:19:25;31.95;;;16.55;;
13969;SDS011;7057;49.984;8.404;2022-12-18T02:22:07;30.38;;;15.57;;
13969;SDS011;7057;49.984;8.404;2022-12-18T02:24:51;28.67;;;14.98;;
13969;SDS011;7057;49.984;8.404;2022-12-18T02:27:30;29.58;;;15.13;;
13969;SDS011;7057;49.984;8.404;2022-12-18T02:30:00;29.17;;;15.32;;
13969;SDS011;7057;49.984;8.404;2022-12-18T02:32:30;29.30;;;14.77;;
13969;SDS011;7057;49.984;8.404;2022-12-18T02:35:00;26.70;;;14.07;;
13969;SDS011;7057;49.984;8.404;2022-12-18T02:37:31;29.30;;;15.23;;
13969;SDS011;7057;49.984;8.404;2022-12-18T02:40:00;30.33;;;15.40;;
13969;SDS011;7057;49.984;8.404;2022-12-18T02:42:31;25.63;;;14.43;;
13969;SDS011;7057;49.984;8.404;2022-12-18T02:44:59;31.58;;;14.82;;
13969;SDS011;7057;49.984;8.404;2022-12-18T02:47:28;27.45;;;14.32;;
13969;SDS011;7057;49.984;8.404;2022-12-18T02:49:58;25.60;;;14.65;;
13969;SDS011;7057;49.984;8.404;2022-12-18T02:52:35;27.93;;;14.60;;
13969;SDS011;7057;49.984;8.404;2022-12-18T02:55:13;27.02;;;13.98;;
13969;SDS011;7057;49.984;8.404;2022-12-18T02:57:52;27.60;;;14.55;;
13969;SDS011;7057;49.984;8.404;2022-12-18T03:00:22;24.10;;;13.43;;
13969;SDS011;7057;49.984;8.404;2022-12-18T03:02:53;26.52;;;13.88;;
13969;SDS011;7057;49.984;8.404;2022-12-18T03:05:27;26.63;;;14.10;;
13969;SDS011;7057;49.984;8.404;2022-12-18T03:08:00;26.73;;;14.38;;
13969;SDS011;7057;49.984;8.404;2022-12-18T03:10:33;26.63;;;13.73;;
13969;SDS011;7057;49.984;8.404;2022-12-18T03:13:07;21.43;;;12.93;;
13969;SDS011;7057;49.984;8.404;2022-12-18T03:15:38;24.83;;;13.73;;
13969;SDS011;7057;49.984;8.404;2022-12-18T03:18:10;24.05;;;13.35;;
13969;SDS011;7057;49.984;8.404;2022-12-18T03:20:44;26.23;;;14.30;;
13969;SDS011;7057;49.984;8.404;2022-12-18T03:23:15;26.17;;;13.23;;
13969;SDS011;7057;49.984;8.404;2022-12-18T03:25:45;26.42;;;14.50;;
13969;SDS011;7057;49.984;8.404;2022-12-18T03:28:18;25.58;;;13.80;;
13969;SDS011;7057;49.984;8.404;2022-12-18T03:30:48;24.80;;;13.27;;
13969;SDS011;7057;49.984;8.404;2022-12-18T03:33:19;25.63;;;13.52;;
13969;SDS011;7057;49.984;8.404;2022-12-18T03:35:52;24.60;;;13.43;;
13969;SDS011;7057;49.984;8.404;2022-12-18T03:38:19;29.08;;;15.13;;
13969;SDS011;7057;49.984;8.404;2022-12-18T03:40:50;26.60;;;15.10;;
13969;SDS011;7057;49.984;8.404;2022-12-18T03:43:29;29.08;;;15.48;;
13969;SDS011;7057;49.984;8.404;2022-12-18T03:46:03;28.83;;;15.35;;
13969;SDS011;7057;49.984;8.404;2022-12-18T03:48:37;28.98;;;13.57;;
13969;SDS011;7057;49.984;8.404;2022-12-18T03:51:09;27.27;;;14.65;;
13969;SDS011;7057;49.984;8.404;2022-12-18T03:53:42;24.42;;;14.35;;
13969;SDS011;7057;49.984;8.404;2022-12-18T03:56:15;28.85;;;14.45;;
13969;SDS011;7057;49.984;8.404;2022-12-18T03:58:44;28.25;;;15.38;;
13969;SDS011;7057;49.984;8.404;2022-12-18T04:01:13;28.92;;;14.27;;
13969;SDS011;7057;49.984;8.404;2022-12-18T04:03:43;26.63;;;13.10;;
13969;SDS011;7057;49.984;8.404;2022-12-18T04:06:13;27.20;;;14.57;;
13969;SDS011;7057;49.984;8.404;2022-12-18T04:08:41;25.85;;;14.73;;
13969;SDS011;7057;49.984;8.404;2022-12-18T04:11:09;26.50;;;14.80;;
13969;SDS011;7057;49.984;8.404;2022-12-18T04:13:37;23.30;;;12.25;;
13969;SDS011;7057;49.984;8.404;2022-12-18T04:16:07;26.65;;;13.60;;
13969;SDS011;7057;49.984;8.404;2022-12-18T04:18:34;26.42;;;14.65;;
13969;SDS011;7057;49.984;8.404;2022-12-18T04:21:02;27.67;;;14.52;;
13969;SDS011;7057;49.984;8.404;2022-12-18T04:23:29;25.83;;;14.10;;
13969;SDS011;7057;49.984;8.404;2022-12-18T04:25:57;26.98;;;14.20;;
13969;SDS011;7057;49.984;8.404;2022-12-18T04:28:24;27.48;;;14.82;;
13969;SDS011;7057;49.984;8.404;2022-12-18T04:30:51;27.50;;;15.10;;
13969;SDS011;7057;49.984;8.404;2022-12-18T04:33:19;25.45;;;14.80;;
13969;SDS011;7057;49.984;8.404;2022-12-18T04:35:47;24.33;;;14.47;;
13969;SDS011;7057;49.984;8.404;2022-12-18T04:38:14;25.85;;;14.57;;
13969;SDS011;7057;49.984;8.404;2022-12-18T04:40:41;27.50;;;14.68;;
13969;SDS011;7057;49.984;8.404;2022-12-18T04:43:09;28.05;;;15.68;;
13969;SDS011;7057;49.984;8.404;2022-12-18T04:45:36;28.65;;;15.52;;
13969;SDS011;7057;49.984;8.404;2022-12-18T04:48:04;27.35;;;15.57;;
13969;SDS011;7057;49.984;8.404;2022-12-18T04:50:33;29.42;;;14.77;;
13969;SDS011;7057;49.984;8.404;2022-12-18T04:53:00;24.48;;;13.70;;
13969;SDS011;7057;49.984;8.404;2022-12-18T04:55:27;28.23;;;15.23;;
13969;SDS011;7057;49.984;8.404;2022-12-18T04:57:54;26.98;;;14.85;;
13969;SDS011;7057;49.984;8.404;2022-12-18T05:00:22;26.92;;;14.32;;
13969;SDS011;7057;49.984;8.404;2022-12-18T05:02:49;29.02;;;15.48;;
13969;SDS011;7057;49.984;8.404;2022-12-18T05:05:17;32.80;;;16.20;;
13969;SDS011;7057;49.984;8.404;2022-12-18T05:07:45;25.90;;;14.80;;
13969;SDS011;7057;49.984;8.404;2022-12-18T05:10:12;27.23;;;15.68;;
13969;SDS011;7057;49.984;8.404;2022-12-18T05:12:40;27.73;;;15.95;;
13969;SDS011;7057;49.984;8.404;2022-12-18T05:15:21;29.73;;;16.08;;
13969;SDS011;7057;49.984;8.404;2022-12-18T05:17:48;30.73;;;15.73;;
13969;SDS011;7057;49.984;8.404;2022-12-18T05:20:15;27.40;;;14.88;;
13969;SDS011;7057;49.984;8.404;2022-12-18T05:22:43;27.23;;;15.45;;
13969;SDS011;7057;49.984;8.404;2022-12-18T05:25:12;24.50;;;14.75;;
13969;SDS011;7057;49.984;8.404;2022-12-18T05:27:39;32.00;;;15.13;;
13969;SDS011;7057;49.984;8.404;2022-12-18T05:30:07;28.45;;;16.45;;
13969;SDS011;7057;49.984;8.404;2022-12-18T05:32:35;26.52;;;15.25;;
13969;SDS011;7057;49.984;8.404;2022-12-18T05:35:02;27.58;;;15.88;;
13969;SDS011;7057;49.984;8.404;2022-12-18T05:37:30;28.63;;;15.80;;
13969;SDS011;7057;49.984;8.404;2022-12-18T05:39:59;26.88;;;16.00;;
13969;SDS011;7057;49.984;8.404;2022-12-18T05:42:26;24.48;;;14.43;;
13969;SDS011;7057;49.984;8.404;2022-12-18T05:44:53;30.48;;;15.30;;
13969;SDS011;7057;49.984;8.404;2022-12-18T05:47:20;26.65;;;14.95;;
13969;SDS011;7057;49.984;8.404;2022-12-18T05:49:48;31.23;;;15.23;;
13969;SDS011;7057;49.984;8.404;2022-12-18T05:52:15;29.45;;;15.90;;
13969;SDS011;7057;49.984;8.404;2022-12-18T05:54:42;27.58;;;15.65;;
13969;SDS011;7057;49.984;8.404;2022-12-18T05:57:10;26.17;;;14.82;;
13969;SDS011;7057;49.984;8.404;2022-12-18T05:59:38;27.67;;;15.90;;
13969;SDS011;7057;49.984;8.404;2022-12-18T06:02:05;26.33;;;14.93;;
13969;SDS011;7057;49.984;8.404;2022-12-18T06:04:32;28.52;;;16.08;;
13969;SDS011;7057;49.984;8.404;2022-12-18T06:07:04;30.45;;;16.50;;
13969;SDS011;7057;49.984;8.404;2022-12-18T06:09:32;29.20;;;15.15;;
13969;SDS011;7057;49.984;8.404;2022-12-18T06:11:59;29.33;;;16.60;;
13969;SDS011;7057;49.984;8.404;2022-12-18T06:14:27;26.17;;;15.25;;
13969;SDS011;7057;49.984;8.404;2022-12-18T06:16:55;32.95;;;17.15;;
13969;SDS011;7057;49.984;8.404;2022-12-18T06:19:22;28.13;;;16.25;;
13969;SDS011;7057;49.984;8.404;2022-12-18T06:21:49;30.70;;;16.80;;
13969;SDS011;7057;49.984;8.404;2022-12-18T06:24:16;30.38;;;16.60;;
13969;SDS011;7057;49.984;8.404;2022-12-18T06:26:44;27.35;;;16.58;;
13969;SDS011;7057;49.984;8.404;2022-12-18T06:29:11;28.98;;;16.45;;
13969;SDS011;7057;49.984;8.404;2022-12-18T06:31:39;30.08;;;15.88;;
13969;SDS011;7057;49.984;8.404;2022-12-18T06:34:06;27.13;;;16.20;;
13969;SDS011;7057;49.984;8.404;2022-12-18T06:36:34;30.67;;;17.23;;
13969;SDS011;7057;49.984;8.404;2022-12-18T06:39:01;27.00;;;16.63;;
13969;SDS011;7057;49.984;8.404;2022-12-18T06:41:28;30.13;;;16.45;;
13969;SDS011;7057;49.984;8.404;2022-12-18T06:43:55;29.77;;;17.02;;
13969;SDS011;7057;49.984;8.404;2022-12-18T06:46:24;30.98;;;18.02;;
13969;SDS011;7057;49.984;8.404;2022-12-18T06:48:52;29.33;;;16.77;;
13969;SDS011;7057;49.984;8.404;2022-12-18T06:51:20;29.75;;;16.63;;
13969;SDS011;7057;49.984;8.404;2022-12-18T06:53:48;31.60;;;18.08;;
13969;SDS011;7057;49.984;8.404;2022-12-18T06:56:16;31.77;;;17.80;;
13969;SDS011;7057;49.984;8.404;2022-12-18T06:58:43;27.73;;;17.73;;
13969;SDS011;7057;49.984;8.404;2022-12-18T07:01:11;34.42;;;18.88;;
13969;SDS011;7057;49.984;8.404;2022-12-18T07:03:39;34.35;;;18.35;;
13969;SDS011;7057;49.984;8.404;2022-12-18T07:06:14;34.15;;;18.80;;
13969;SDS011;7057;49.984;8.404;2022-12-18T07:08:43;34.10;;;19.40;;
13969;SDS011;7057;49.984;8.404;2022-12-18T07:11:10;35.67;;;18.10;;
13969;SDS011;7057;49.984;8.404;2022-12-18T07:13:37;32.67;;;18.83;;
13969;SDS011;7057;49.984;8.404;2022-12-18T07:16:06;40.85;;;20.52;;
13969;SDS011;7057;49.984;8.404;2022-12-18T07:18:34;37.65;;;20.73;;
13969;SDS011;7057;49.984;8.404;2022-12-18T07:21:04;39.38;;;23.27;;
13969;SDS011;7057;49.984;8.404;2022-12-18T07:23:33;43.97;;;26.70;;
13969;SDS011;7057;49.984;8.404;2022-12-18T07:26:02;43.72;;;24.80;;
13969;SDS011;7057;49.984;8.404;2022-12-18T07:28:30;42.40;;;25.55;;
13969;SDS011;7057;49.984;8.404;2022-12-18T07:30:57;39.28;;;24.15;;
13969;SDS011;7057;49.984;8.404;2022-12-18T07:33:25;34.30;;;20.40;;
13969;SDS011;7057;49.984;8.404;2022-12-18T07:35:52;35.33;;;19.23;;
13969;SDS011;7057;49.984;8.404;2022-12-18T07:38:19;34.42;;;19.63;;
13969;SDS011;7057;49.984;8.404;2022-12-18T07:40:48;33.83;;;19.47;;
13969;SDS011;7057;49.984;8.404;2022-12-18T07:43:16;31.83;;;19.95;;
13969;SDS011;7057;49.984;8.404;2022-12-18T07:45:43;35.72;;;19.30;;
13969;SDS011;7057;49.984;8.404;2022-12-18T07:48:10;34.25;;;19.50;;
13969;SDS011;7057;49.984;8.404;2022-12-18T07:50:37;35.05;;;19.48;;
13969;SDS011;7057;49.984;8.404;2022-12-18T07:53:05;34.05;;;18.77;;
13969;SDS011;7057;49.984;8.404;2022-12-18T07:55:32;32.35;;;19.80;;
13969;SDS011;7057;49.984;8.404;2022-12-18T07:58:02;34.65;;;19.00;;
13969;SDS011;7057;49.984;8.404;2022-12-18T08:00:29;32.57;;;19.30;;
13969;SDS011;7057;49.984;8.404;2022-12-18T08:02:57;34.88;;;19.70;;
13969;SDS011;7057;49.984;8.404;2022-12-18T08:05:25;37.72;;;21.60;;
13969;SDS011;7057;49.984;8.404;2022-12-18T08:07:52;31.73;;;19.13;;
13969;SDS011;7057;49.984;8.404;2022-12-18T08:10:20;35.33;;;19.50;;
13969;SDS011;7057;49.984;8.404;2022-12-18T08:12:48;34.92;;;20.45;;
13969;SDS011;7057;49.984;8.404;2022-12-18T08:15:17;35.33;;;19.67;;
13969;SDS011;7057;49.984;8.404;2022-12-18T08:17:45;38.20;;;20.08;;
13969;SDS011;7057;49.984;8.404;2022-12-18T08:20:12;34.55;;;20.98;;
13969;SDS011;7057;49.984;8.404;2022-12-18T08:22:40;36.93;;;20.37;;
13969;SDS011;7057;49.984;8.404;2022-12-18T08:25:08;37.70;;;19.75;;
13969;SDS011;7057;49.984;8.404;2022-12-18T08:27:36;31.58;;;18.55;;
13969;SDS011;7057;49.984;8.404;2022-12-18T08:30:03;33.78;;;19.70;;
13969;SDS011;7057;49.984;8.404;2022-12-18T08:32:32;38.28;;;20.65;;
13969;SDS011;7057;49.984;8.404;2022-12-18T08:35:00;43.47;;;23.08;;
13969;SDS011;7057;49.984;8.404;2022-12-18T08:37:27;39.35;;;21.60;;
13969;SDS011;7057;49.984;8.404;2022-12-18T08:39:54;37.17;;;21.25;;
13969;SDS011;7057;49.984;8.404;2022-12-18T08:42:21;35.50;;;20.30;;
13969;SDS011;7057;49.984;8.404;2022-12-18T08:45:06;35.45;;;20.55;;
13969;SDS011;7057;49.984;8.404;2022-12-18T08:47:36;36.65;;;20.10;;
13969;SDS011;7057;49.984;8.404;2022-12-18T08:50:03;35.63;;;20.73;;
13969;SDS011;7057;49.984;8.404;2022-12-18T08:52:31;35.88;;;21.23;;
13969;SDS011;7057;49.984;8.404;2022-12-18T08:54:59;40.35;;;22.40;;
13969;SDS011;7057;49.984;8.404;2022-12-18T08:57:26;37.60;;;21.02;;
13969;SDS011;7057;49.984;8.404;2022-12-18T08:59:53;43.03;;;23.13;;
13969;SDS011;7057;49.984;8.404;2022-12-18T09:02:20;37.90;;;21.48;;
13969;SDS011;7057;49.984;8.404;2022-12-18T09:04:49;39.45;;;22.30;;
13969;SDS011;7057;49.984;8.404;2022-12-18T09:07:16;36.70;;;21.48;;
13969;SDS011;7057;49.984;8.404;2022-12-18T09:09:43;38.77;;;21.90;;
13969;SDS011;7057;49.984;8.404;2022-12-18T09:12:11;34.35;;;21.60;;
13969;SDS011;7057;49.984;8.404;2022-12-18T09:14:38;36.25;;;22.10;;
13969;SDS011;7057;49.984;8.404;2022-12-18T09:17:05;38.97;;;22.17;;
13969;SDS011;7057;49.984;8.404;2022-12-18T09:19:32;42.05;;;25.95;;
13969;SDS011;7057;49.984;8.404;2022-12-18T09:22:01;39.03;;;23.25;;
13969;SDS011;7057;49.984;8.404;2022-12-18T09:24:28;38.60;;;22.63;;
13969;SDS011;7057;49.984;8.404;2022-12-18T09:26:55;39.95;;;23.30;;
13969;SDS011;7057;49.984;8.404;2022-12-18T09:29:22;38.17;;;23.00;;
13969;SDS011;7057;49.984;8.404;2022-12-18T09:31:50;37.88;;;22.23;;
13969;SDS011;7057;49.984;8.404;2022-12-18T09:34:17;39.13;;;22.25;;
13969;SDS011;7057;49.984;8.404;2022-12-18T09:36:46;40.72;;;21.90;;
13969;SDS011;7057;49.984;8.404;2022-12-18T09:39:15;40.10;;;22.77;;
13969;SDS011;7057;49.984;8.404;2022-12-18T09:41:43;38.08;;;21.67;;
13969;SDS011;7057;49.984;8.404;2022-12-18T09:44:20;37.55;;;21.75;;
13969;SDS011;7057;49.984;8.404;2022-12-18T09:46:52;38.93;;;22.20;;
13969;SDS011;7057;49.984;8.404;2022-12-18T09:49:26;40.00;;;22.23;;
13969;SDS011;7057;49.984;8.404;2022-12-18T09:51:56;37.92;;;22.25;;
13969;SDS011;7057;49.984;8.404;2022-12-18T09:54:32;35.88;;;21.55;;
13969;SDS011;7057;49.984;8.404;2022-12-18T09:57:02;43.90;;;20.75;;
13969;SDS011;7057;49.984;8.404;2022-12-18T09:59:31;40.53;;;21.55;;
13969;SDS011;7057;49.984;8.404;2022-12-18T10:02:10;39.83;;;22.63;;
13969;SDS011;7057;49.984;8.404;2022-12-18T10:04:41;37.65;;;21.27;;
13969;SDS011;7057;49.984;8.404;2022-12-18T10:07:10;38.25;;;22.67;;
13969;SDS011;7057;49.984;8.404;2022-12-18T10:09:46;35.00;;;20.35;;
13969;SDS011;7057;49.984;8.404;2022-12-18T10:12:24;38.33;;;19.73;;
13969;SDS011;7057;49.984;8.404;2022-12-18T10:14:59;39.72;;;22.20;;
13969;SDS011;7057;49.984;8.404;2022-12-18T10:17:33;35.53;;;20.33;;
13969;SDS011;7057;49.984;8.404;2022-12-18T10:20:05;36.60;;;20.38;;
13969;SDS011;7057;49.984;8.404;2022-12-18T10:22:44;38.42;;;22.10;;
13969;SDS011;7057;49.984;8.404;2022-12-18T10:25:19;40.08;;;22.75;;
13969;SDS011;7057;49.984;8.404;2022-12-18T10:27:51;38.35;;;20.50;;
13969;SDS011;7057;49.984;8.404;2022-12-18T10:30:22;26.05;;;14.00;;
13969;SDS011;7057;49.984;8.404;2022-12-18T10:32:50;44.05;;;23.17;;
13969;SDS011;7057;49.984;8.404;2022-12-18T10:35:18;40.67;;;23.27;;
13969;SDS011;7057;49.984;8.404;2022-12-18T10:38:00;43.15;;;23.13;;
13969;SDS011;7057;49.984;8.404;2022-12-18T10:40:49;40.63;;;23.60;;
13969;SDS011;7057;49.984;8.404;2022-12-18T10:43:21;39.42;;;22.70;;
13969;SDS011;7057;49.984;8.404;2022-12-18T10:46:01;38.08;;;21.63;;
13969;SDS011;7057;49.984;8.404;2022-12-18T10:48:31;33.15;;;16.88;;
13969;SDS011;7057;49.984;8.404;2022-12-18T10:51:00;36.55;;;20.63;;
13969;SDS011;7057;49.984;8.404;2022-12-18T10:53:28;41.70;;;22.10;;
13969;SDS011;7057;49.984;8.404;2022-12-18T10:55:58;41.65;;;23.50;;
13969;SDS011;7057;49.984;8.404;2022-12-18T10:58:27;43.03;;;24.40;;
13969;SDS011;7057;49.984;8.404;2022-12-18T11:01:08;43.78;;;24.48;;
13969;SDS011;7057;49.984;8.404;2022-12-18T11:03:36;44.43;;;25.30;;
13969;SDS011;7057;49.984;8.404;2022-12-18T11:06:06;44.47;;;23.38;;
13969;SDS011;7057;49.984;8.404;2022-12-18T11:08:35;41.38;;;23.38;;
13969;SDS011;7057;49.984;8.404;2022-12-18T11:11:06;37.90;;;19.95;;
13969;SDS011;7057;49.984;8.404;2022-12-18T11:13:42;39.90;;;20.63;;
13969;SDS011;7057;49.984;8.404;2022-12-18T11:16:21;40.88;;;16.85;;
13969;SDS011;7057;49.984;8.404;2022-12-18T11:18:49;25.50;;;14.63;;
13969;SDS011;7057;49.984;8.404;2022-12-18T11:21:16;39.70;;;22.38;;
13969;SDS011;7057;49.984;8.404;2022-12-18T11:23:46;47.85;;;26.13;;
13969;SDS011;7057;49.984;8.404;2022-12-18T11:26:17;41.15;;;22.90;;
13969;SDS011;7057;49.984;8.404;2022-12-18T11:28:46;38.15;;;19.42;;
13969;SDS011;7057;49.984;8.404;2022-12-18T11:31:20;45.25;;;24.73;;
13969;SDS011;7057;49.984;8.404;2022-12-18T11:33:51;49.75;;;26.90;;
13969;SDS011;7057;49.984;8.404;2022-12-18T11:36:22;48.08;;;25.63;;
13969;SDS011;7057;49.984;8.404;2022-12-18T11:38:52;43.63;;;23.67;;
13969;SDS011;7057;49.984;8.404;2022-12-18T11:41:23;38.42;;;21.27;;
13969;SDS011;7057;49.984;8.404;2022-12-18T11:44:10;47.72;;;24.52;;
13969;SDS011;7057;49.984;8.404;2022-12-18T11:46:43;43.90;;;24.42;;
13969;SDS011;7057;49.984;8.404;2022-12-18T11:49:15;43.70;;;25.08;;
13969;SDS011;7057;49.984;8.404;2022-12-18T11:51:48;33.70;;;18.50;;
13969;SDS011;7057;49.984;8.404;2022-12-18T11:54:20;41.40;;;22.73;;
13969;SDS011;7057;49.984;8.404;2022-12-18T11:56:50;47.05;;;24.85;;
13969;SDS011;7057;49.984;8.404;2022-12-18T11:59:24;42.50;;;24.13;;
13969;SDS011;7057;49.984;8.404;2022-12-18T12:02:02;45.28;;;24.77;;
13969;SDS011;7057;49.984;8.404;2022-12-18T12:04:46;45.72;;;24.75;;
13969;SDS011;7057;49.984;8.404;2022-12-18T12:07:26;44.38;;;23.92;;
13969;SDS011;7057;49.984;8.404;2022-12-18T12:10:09;45.67;;;23.63;;
13969;SDS011;7057;49.984;8.404;2022-12-18T12:12:54;45.35;;;23.77;;
13969;SDS011;7057;49.984;8.404;2022-12-18T12:15:37;44.25;;;23.58;;
13969;SDS011;7057;49.984;8.404;2022-12-18T12:18:16;44.28;;;23.60;;
13969;SDS011;7057;49.984;8.404;2022-12-18T12:20:53;42.30;;;22.67;;
13969;SDS011;7057;49.984;8.404;2022-12-18T12:23:30;43.85;;;23.30;;
13969;SDS011;7057;49.984;8.404;2022-12-18T12:26:06;44.03;;;22.73;;
13969;SDS011;7057;49.984;8.404;2022-12-18T12:28:44;43.65;;;23.17;;
13969;SDS011;7057;49.984;8.404;2022-12-18T12:31:22;41.55;;;22.08;;
13969;SDS011;7057;49.984;8.404;2022-12-18T12:34:00;46.35;;;23.75;;
13969;SDS011;7057;49.984;8.404;2022-12-18T12:36:39;44.15;;;23.40;;
13969;SDS011;7057;49.984;8.404;2022-12-18T12:39:16;45.20;;;23.48;;
13969;SDS011;7057;49.984;8.404;2022-12-18T12:41:47;44.13;;;22.95;;
13969;SDS011;7057;49.984;8.404;2022-12-18T12:44:34;44.63;;;24.05;;
13969;SDS011;7057;49.984;8.404;2022-12-18T12:47:07;43.03;;;23.42;;
13969;SDS011;7057;49.984;8.404;2022-12-18T12:49:39;46.03;;;24.13;;
13969;SDS011;7057;49.984;8.404;2022-12-18T12:52:14;39.20;;;22.65;;
13969;SDS011;7057;49.984;8.404;2022-12-18T12:54:44;45.65;;;23.33;;
13969;SDS011;7057;49.984;8.404;2022-12-18T12:57:13;44.22;;;23.17;;
13969;SDS011;7057;49.984;8.404;2022-12-18T12:59:47;45.17;;;22.75;;
13969;SDS011;7057;49.984;8.404;2022-12-18T13:02:20;39.47;;;20.33;;
13969;SDS011;7057;49.984;8.404;2022-12-18T13:04:56;46.27;;;23.33;;
13969;SDS011;7057;49.984;8.404;2022-12-18T13:07:29;43.38;;;21.58;;
13969;SDS011;7057;49.984;8.404;2022-12-18T13:10:24;49.95;;;24.55;;
13969;SDS011;7057;49.984;8.404;2022-12-18T13:12:59;39.80;;;19.48;;
13969;SDS011;7057;49.984;8.404;2022-12-18T13:15:30;46.53;;;22.98;;
13969;SDS011;7057;49.984;8.404;2022-12-18T13:18:03;51.08;;;23.08;;
13969;SDS011;7057;49.984;8.404;2022-12-18T13:20:37;49.13;;;23.73;;
13969;SDS011;7057;49.984;8.404;2022-12-18T13:23:19;44.22;;;22.30;;
13969;SDS011;7057;49.984;8.404;2022-12-18T13:25:53;49.47;;;24.20;;
13969;SDS011;7057;49.984;8.404;2022-12-18T13:28:21;44.33;;;19.92;;
13969;SDS011;7057;49.984;8.404;2022-12-18T13:30:53;46.10;;;20.38;;
13969;SDS011;7057;49.984;8.404;2022-12-18T13:33:38;52.30;;;24.33;;
13969;SDS011;7057;49.984;8.404;2022-12-18T13:36:13;48.10;;;22.65;;
13969;SDS011;7057;49.984;8.404;2022-12-18T13:38:42;47.03;;;22.57;;
13969;SDS011;7057;49.984;8.404;2022-12-18T13:41:22;46.08;;;22.42;;
13969;SDS011;7057;49.984;8.404;2022-12-18T13:43:52;44.30;;;22.08;;
13969;SDS011;7057;49.984;8.404;2022-12-18T13:46:22;45.08;;;21.73;;
13969;SDS011;7057;49.984;8.404;2022-12-18T13:48:53;51.88;;;25.38;;
13969;SDS011;7057;49.984;8.404;2022-12-18T13:51:24;52.03;;;24.85;;
13969;SDS011;7057;49.984;8.404;2022-12-18T13:53:53;45.30;;;20.63;;
13969;SDS011;7057;49.984;8.404;2022-12-18T13:56:24;49.97;;;23.87;;
13969;SDS011;7057;49.984;8.404;2022-12-18T14:01:50;49.28;;;24.98;;
13969;SDS011;7057;49.984;8.404;2022-12-18T14:04:20;39.10;;;17.75;;
13969;SDS011;7057;49.984;8.404;2022-12-18T14:06:51;54.30;;;25.15;;
13969;SDS011;7057;49.984;8.404;2022-12-18T14:09:23;55.92;;;26.08;;
13969;SDS011;7057;49.984;8.404;2022-12-18T14:11:52;52.03;;;23.90;;
13969;SDS011;7057;49.984;8.404;2022-12-18T14:14:42;50.53;;;23.92;;
13969;SDS011;7057;49.984;8.404;2022-12-18T14:17:13;46.97;;;23.63;;
13969;SDS011;7057;49.984;8.404;2022-12-18T14:19:42;53.47;;;24.75;;
13969;SDS011;7057;49.984;8.404;2022-12-18T14:22:13;43.85;;;19.95;;
13969;SDS011;7057;49.984;8.404;2022-12-18T14:24:42;52.67;;;24.02;;
13969;SDS011;7057;49.984;8.404;2022-12-18T14:27:19;51.78;;;25.33;;
13969;SDS011;7057;49.984;8.404;2022-12-18T14:29:48;51.05;;;24.38;;
13969;SDS011;7057;49.984;8.404;2022-12-18T14:32:18;49.83;;;23.05;;
13969;SDS011;7057;49.984;8.404;2022-12-18T14:34:47;45.35;;;21.88;;
13969;SDS011;7057;49.984;8.404;2022-12-18T14:37:16;50.90;;;23.60;;
13969;SDS011;7057;49.984;8.404;2022-12-18T14:39:53;50.13;;;23.85;;
13969;SDS011;7057;49.984;8.404;2022-12-18T14:42:22;48.25;;;23.20;;
13969;SDS011;7057;49.984;8.404;2022-12-18T14:47:59;50.20;;;23.30;;
13969;SDS011;7057;49.984;8.404;2022-12-18T14:50:27;49.65;;;23.98;;
13969;SDS011;7057;49.984;8.404;2022-12-18T14:52:54;49.70;;;24.33;;
13969;SDS011;7057;49.984;8.404;2022-12-18T14:55:21;51.33;;;24.02;;
13969;SDS011;7057;49.984;8.404;2022-12-18T14:57:49;45.85;;;22.85;;
13969;SDS011;7057;49.984;8.404;2022-12-18T15:00:20;51.63;;;25.10;;